Terminal Aerodrome Forecast
Issued by NWS

Current Version | Previous Version | Text Only | Print | Product List | Glossary On
Versions: 1 2 3 4 5 6 7 8 9 10 11 12 13 14 15 16 17
000
FTUS46 KLOX 251100
TAFOXR
TAF
KOXR 251126Z 2512/2612 VRB03KT P6SM BKN150
     FM251700 27012KT P6SM SCT040 BKN080
     FM252200 27020G30KT P6SM SCT035 BKN060
     FM260300 27014G20KT P6SM SCT080
     FM260600 30007KT P6SM SCT150=

USA.gov is the U.S. government's official web portal to all federal, state and local government web resources and services.